Time;durP1;ratioP1;P1;durP2;ratioP2;P2;SDS_P1;SDS_P2;PMS_P1;PMS_P2;Temp;Humidity;BMP_temperature;BMP_pressure;BME280_temperature;BME280_humidity;BME280_pressure;Samples;Min_cycle;Max_cycle;Signal;HPM_P1;HPM_P2
2021/04/13 00:00:20;;;;;;;19.23;8.10;;;;;;;6.21;97.91;100677.44;5054196;28;20120;-71
2021/04/13 00:02:50;;;;;;;15.88;7.50;;;;;;;6.15;97.42;100652.59;5048401;28;20041;-71
2021/04/13 00:05:54;;;;;;;18.88;11.20;;;;;;;6.30;95.13;100671.69;5053815;28;20048;-71
2021/04/13 00:08:22;;;;;;;23.88;14.20;;;;;;;6.21;96.11;100671.34;5053725;28;20047;-71
2021/04/13 00:10:53;;;;;;;20.02;7.35;;;;;;;6.09;97.46;100665.09;5035905;28;20087;-71
2021/04/13 00:13:21;;;;;;;17.17;9.60;;;;;;;5.62;99.56;100643.41;5053774;28;20079;-71
2021/04/13 00:15:55;;;;;;;23.55;8.50;;;;;;;5.36;100.00;100636.19;5053693;28;20488;-71
2021/04/13 00:18:27;;;;;;;17.52;8.85;;;;;;;5.38;100.00;100623.94;5054003;28;20031;-71
2021/04/13 00:20:58;;;;;;;19.38;6.90;;;;;;;5.38;100.00;100623.94;5053703;28;20086;-71
2021/04/13 00:23:25;;;;;;;11.60;7.03;;;;;;;5.51;100.00;100629.31;5053764;28;20055;-71
2021/04/13 00:25:57;;;;;;;17.95;6.47;;;;;;;5.63;100.00;100642.47;5053902;28;20056;-71
2021/04/13 00:28:26;;;;;;;17.30;6.53;;;;;;;5.09;100.00;100576.16;5053428;28;20056;-71
2021/04/13 00:30:55;;;;;;;14.97;6.67;;;;;;;5.27;100.00;100629.72;5053449;28;20401;-71
2021/04/13 00:33:26;;;;;;;13.77;6.07;;;;;;;5.45;100.00;100661.69;5053549;28;20499;-71
2021/04/13 00:36:10;;;;;;;11.82;6.57;;;;;;;5.37;100.00;100662.09;5053502;28;20496;-71
2021/04/13 00:38:38;;;;;;;11.93;6.68;;;;;;;5.21;100.00;100659.47;5053218;28;20104;-71
2021/04/13 00:41:15;;;;;;;11.85;6.28;;;;;;;5.05;100.00;100657.78;5053248;28;20508;-71
2021/04/13 00:43:51;;;;;;;13.93;6.25;;;;;;;5.01;100.00;100643.28;5053548;28;20116;-71
2021/04/13 00:46:24;;;;;;;15.35;6.53;;;;;;;5.00;100.00;100642.44;5053019;28;20057;-71
2021/04/13 00:48:53;;;;;;;13.07;5.88;;;;;;;5.06;100.00;100646.44;5052778;28;20393;-71
2021/04/13 00:51:30;;;;;;;15.30;6.50;;;;;;;4.96;100.00;100646.97;5053207;28;20021;-71
2021/04/13 00:54:06;;;;;;;13.00;6.28;;;;;;;4.69;100.00;100604.22;5052067;28;20079;-71
2021/04/13 00:56:34;;;;;;;12.20;6.57;;;;;;;4.86;100.00;100608.53;5053114;28;20059;-71
2021/04/13 00:59:09;;;;;;;15.75;6.53;;;;;;;5.10;100.00;100640.19;5052867;28;20451;-70
2021/04/13 01:01:39;;;;;;;11.52;6.03;;;;;;;4.98;100.00;100641.66;5052840;28;20463;-71
2021/04/13 01:04:18;;;;;;;17.02;7.18;;;;;;;4.64;100.00;100607.06;5052879;28;20049;-71
2021/04/13 01:06:44;;;;;;;10.15;6.10;;;;;;;4.45;100.00;100554.44;5051344;28;20423;-71
2021/04/13 01:09:24;;;;;;;11.93;5.88;;;;;;;4.78;100.00;100582.97;5052828;28;20017;-71
2021/04/13 01:11:57;;;;;;;21.50;7.07;;;;;;;5.02;100.00;100608.56;5052726;28;20028;-71
2021/04/13 01:14:25;;;;;;;16.83;6.57;;;;;;;5.12;100.00;100614.94;5052452;28;20033;-71
2021/04/13 01:16:55;;;;;;;11.52;6.60;;;;;;;5.30;100.00;100629.56;5052863;28;20040;-70
2021/04/13 01:19:41;;;;;;;11.13;7.20;;;;;;;5.30;100.00;100631.31;5052839;28;20040;-71
2021/04/13 01:22:56;;;;;;;12.43;7.07;;;;;;;5.19;100.00;100634.50;5052616;28;20036;-71
2021/04/13 01:25:22;;;;;;;13.85;6.00;;;;;;;4.83;100.00;100639.88;5052465;28;20408;-71
2021/04/13 01:27:51;;;;;;;14.20;6.93;;;;;;;4.54;100.00;100631.00;5053239;28;20029;-71
2021/04/13 01:30:18;;;;;;;18.45;7.15;;;;;;;3.87;100.00;100532.28;5052527;28;20025;-71
2021/04/13 01:32:43;;;;;;;13.43;6.30;;;;;;;4.28;100.00;100583.00;5052580;28;20455;-71
2021/04/13 01:35:13;;;;;;;14.57;6.63;;;;;;;4.25;100.00;100589.19;5052457;28;20036;-71
2021/04/13 01:38:05;;;;;;;15.93;6.78;;;;;;;4.25;100.00;100621.19;5051301;28;20029;-71
2021/04/13 01:43:22;;;;;;;11.68;6.78;;;;;;;4.15;100.00;100630.34;5052367;28;20377;-71
2021/04/13 01:45:49;;;;;;;11.45;7.07;;;;;;;3.68;100.00;100534.09;5052366;28;20558;-71
2021/04/13 01:48:17;;;;;;;14.30;7.28;;;;;;;4.21;100.00;100613.59;5052210;28;20100;-71
2021/04/13 01:50:45;;;;;;;12.40;7.03;;;;;;;4.06;100.00;100625.59;5051985;28;20033;-71
2021/04/13 01:53:19;;;;;;;12.27;7.03;;;;;;;3.99;100.00;100629.41;5052163;28;20032;-71
2021/04/13 01:55:51;;;;;;;12.48;7.00;;;;;;;3.76;100.00;100596.81;5052059;28;20036;-71
2021/04/13 01:58:27;;;;;;;13.85;7.72;;;;;;;3.70;100.00;100615.25;5051989;28;20033;-71
2021/04/13 02:00:59;;;;;;;15.25;7.00;;;;;;;3.67;100.00;100625.75;5052514;28;20074;-71
2021/04/13 02:03:31;;;;;;;13.65;7.53;;;;;;;3.69;100.00;100627.38;5052114;28;20025;-71
2021/04/13 02:06:09;;;;;;;14.15;6.90;;;;;;;3.48;100.00;100623.19;5051833;28;20504;-71
2021/04/13 02:08:55;;;;;;;12.45;7.45;;;;;;;3.36;100.00;100623.75;5051904;28;20021;-71
2021/04/13 02:11:24;;;;;;;16.63;7.20;;;;;;;2.96;100.00;100584.97;5051906;28;20120;-71
2021/04/13 02:14:04;;;;;;;12.80;7.15;;;;;;;3.07;100.00;100621.59;5051857;28;20029;-71
2021/04/13 02:16:34;;;;;;;12.98;7.80;;;;;;;3.17;100.00;100615.97;5051963;28;20492;-71
2021/04/13 02:19:02;;;;;;;11.65;7.60;;;;;;;3.10;100.00;100580.91;5051953;28;20115;-71
2021/04/13 02:21:41;;;;;;;12.65;6.90;;;;;;;3.33;100.00;100609.19;5051907;28;20037;-71
2021/04/13 02:24:34;;;;;;;10.88;7.50;;;;;;;3.19;100.00;100619.34;5052004;28;20087;-71
2021/04/13 02:27:03;;;;;;;14.38;7.60;;;;;;;2.97;100.00;100622.06;5052231;28;20037;-71
2021/04/13 02:29:39;;;;;;;15.15;9.00;;;;;;;2.90;100.00;100621.50;5051603;28;20029;-71
2021/04/13 02:32:13;;;;;;;14.98;9.43;;;;;;;2.89;100.00;100625.00;5064882;28;20043;-71
2021/04/13 02:34:44;;;;;;;13.10;9.30;;;;;;;2.56;100.00;100597.09;5072139;28;20021;-70
2021/04/13 02:37:29;;;;;;;15.18;9.07;;;;;;;2.85;100.00;100631.22;5071850;28;20120;-71
2021/04/13 02:39:55;;;;;;;18.98;9.93;;;;;;;2.71;100.00;100605.13;5071676;28;20120;-71
2021/04/13 02:42:24;;;;;;;15.35;10.38;;;;;;;2.64;100.00;100589.00;5063468;28;20035;-71
2021/04/13 02:44:59;;;;;;;20.40;11.23;;;;;;;2.81;100.00;100583.94;5071874;28;20029;-71
2021/04/13 02:47:26;;;;;;;53.13;12.77;;;;;;;3.15;100.00;100626.44;5070509;28;20037;-71
2021/04/13 02:49:54;;;;;;;23.13;10.52;;;;;;;3.38;100.00;100633.16;5068727;28;20478;-71
2021/04/13 02:52:28;;;;;;;15.25;9.20;;;;;;;3.35;100.00;100599.59;5064867;28;20495;-71
2021/04/13 02:54:57;;;;;;;11.52;8.77;;;;;;;3.36;100.00;100597.84;5071746;28;20031;-71
2021/04/13 02:57:39;;;;;;;15.45;10.88;;;;;;;3.06;100.00;100544.78;5071654;28;20028;-71
2021/04/13 03:00:11;;;;;;;16.65;9.60;;;;;;;3.68;100.00;100619.66;5071812;28;20067;-71
2021/04/13 03:03:03;;;;;;;15.10;9.40;;;;;;;3.68;100.00;100622.22;5071580;28;20028;-71
2021/04/13 03:05:30;;;;;;;17.77;10.27;;;;;;;3.42;100.00;100585.44;5071626;28;20087;-71
2021/04/13 03:07:57;;;;;;;16.83;10.00;;;;;;;3.38;100.00;100615.00;5071529;28;20074;-71
2021/04/13 03:10:31;;;;;;;14.50;10.10;;;;;;;3.41;100.00;100614.88;5072319;28;20029;-71
2021/04/13 03:12:59;;;;;;;14.20;9.23;;;;;;;3.01;100.00;100585.63;5074884;28;20028;-71
2021/04/13 03:15:29;;;;;;;13.80;9.82;;;;;;;3.17;100.00;100621.16;5073771;28;20024;-71
2021/04/13 03:18:01;;;;;;;31.88;19.35;;;;;;;3.24;100.00;100614.78;5067355;28;20420;-71
2021/04/13 03:20:42;;;;;;;16.77;11.65;;;;;;;3.29;100.00;100613.69;5075292;28;20040;-72
2021/04/13 03:23:10;;;;;;;14.68;8.77;;;;;;;3.02;100.00;100581.28;5074769;28;20514;-71
2021/04/13 03:25:42;;;;;;;14.23;8.70;;;;;;;3.16;100.00;100606.53;5074643;28;20029;-71
2021/04/13 03:28:10;;;;;;;13.02;8.77;;;;;;;2.81;100.00;100562.38;5074838;28;20054;-71
2021/04/13 03:30:39;;;;;;;13.32;8.50;;;;;;;3.29;100.00;100615.44;5069655;28;20033;-71
2021/04/13 03:33:20;;;;;;;12.27;8.10;;;;;;;3.10;100.00;100586.94;5053815;28;20040;-71
2021/04/13 03:35:46;;;;;;;12.20;8.57;;;;;;;3.29;100.00;100636.16;5053649;28;20251;-71
2021/04/13 03:38:18;;;;;;;18.13;11.55;;;;;;;3.15;100.00;100625.59;5053544;28;20028;-71
2021/04/13 03:40:47;;;;;;;18.98;12.50;;;;;;;2.64;100.00;100578.66;5053749;28;20476;-71
2021/04/13 03:43:16;;;;;;;16.23;10.52;;;;;;;2.96;100.00;100625.56;5053651;28;20112;-71
2021/04/13 03:45:44;;;;;;;16.05;10.38;;;;;;;2.60;100.00;100585.72;5053942;28;20116;-71
2021/04/13 03:48:18;;;;;;;20.40;10.38;;;;;;;2.71;100.00;100587.00;5054617;28;20029;-71
2021/04/13 03:50:45;;;;;;;16.58;10.65;;;;;;;3.11;100.00;100629.22;5054687;28;20476;-71
2021/04/13 03:53:14;;;;;;;14.45;9.82;;;;;;;2.98;100.00;100609.06;5054490;28;20033;-71
2021/04/13 03:55:57;;;;;;;18.38;10.23;;;;;;;2.75;100.00;100552.28;5054229;28;20488;-71
2021/04/13 03:58:25;;;;;;;20.02;10.38;;;;;;;3.36;100.00;100658.28;5054375;28;20108;-71
2021/04/13 04:00:53;;;;;;;21.67;16.77;;;;;;;3.50;100.00;100650.69;5053926;28;20112;-71
2021/04/13 04:03:19;;;;;;;22.73;13.90;;;;;;;3.56;100.00;100639.22;5053943;28;20041;-71
2021/04/13 04:05:52;;;;;;;19.67;11.82;;;;;;;3.79;100.00;100644.16;5053960;28;20442;-71
2021/04/13 04:08:50;;;;;;;22.00;14.15;;;;;;;3.70;100.00;100643.75;5054556;28;20402;-71
2021/04/13 04:11:16;;;;;;;27.52;16.05;;;;;;;3.42;100.00;100608.78;5045357;28;20466;-71
2021/04/13 04:13:48;;;;;;;20.55;12.23;;;;;;;3.66;100.00;100642.22;5069935;28;20025;-71
2021/04/13 04:16:32;;;;;;;24.45;11.13;;;;;;;3.50;100.00;100637.75;5054138;28;20091;-71
2021/04/13 04:19:11;;;;;;;14.25;9.88;;;;;;;3.13;100.00;100597.16;5054203;28;20029;-71
2021/04/13 04:21:42;;;;;;;17.30;10.60;;;;;;;3.34;100.00;100641.13;5053971;28;20033;-71
2021/04/13 04:24:16;;;;;;;15.27;10.77;;;;;;;3.51;100.00;100652.41;5054181;28;20033;-71
2021/04/13 04:27:23;;;;;;;50.22;28.40;;;;;;;3.90;100.00;100661.78;5052784;28;20067;-71
2021/04/13 04:30:04;;;;;;;22.92;10.63;;;;;;;3.73;100.00;100576.22;5053050;28;20119;-71
2021/04/13 04:32:29;;;;;;;15.82;10.90;;;;;;;4.52;100.00;100661.38;5053986;28;20118;-72
2021/04/13 04:34:57;;;;;;;14.85;9.90;;;;;;;4.58;100.00;100616.94;5054342;28;20071;-71
2021/04/13 04:37:32;;;;;;;14.63;9.88;;;;;;;5.10;100.00;100655.78;5053341;28;20104;-71
2021/04/13 04:40:15;;;;;;;19.73;10.70;;;;;;;5.16;100.00;100634.66;5052478;28;20032;-71
2021/04/13 04:43:01;;;;;;;15.80;10.77;;;;;;;5.63;100.00;100665.03;5053439;28;20033;-71
2021/04/13 04:45:42;;;;;;;20.65;11.55;;;;;;;5.78;100.00;100653.78;5053273;28;20492;-71
2021/04/13 04:48:26;;;;;;;;;;;;;;;6.19;100.00;100666.25;5053923;28;20036;-71
2021/04/13 04:50:55;;;;;;;24.15;12.30;;;;;;;6.32;100.00;100662.03;5053307;28;19920;-71
2021/04/13 04:53:22;;;;;;;24.33;12.07;;;;;;;6.44;100.00;100659.63;5053595;28;20380;-71
2021/04/13 04:55:52;;;;;;;27.67;13.48;;;;;;;6.30;100.00;100627.41;5053259;28;20041;-71
2021/04/13 04:58:18;;;;;;;20.67;13.57;;;;;;;6.66;100.00;100667.84;5052352;28;20056;-71
2021/04/13 05:00:44;;;;;;;24.48;12.80;;;;;;;6.70;100.00;100632.06;5053250;28;20037;-71
2021/04/13 05:03:09;;;;;;;20.13;13.85;;;;;;;6.97;100.00;100640.81;5053171;28;20393;-71
2021/04/13 05:05:35;;;;;;;20.00;13.25;;;;;;;7.12;100.00;100635.56;5052736;28;20041;-71
2021/04/13 05:08:01;;;;;;;24.20;13.32;;;;;;;7.51;100.00;100672.22;5053063;28;20086;-71
2021/04/13 05:10:26;;;;;;;25.20;14.10;;;;;;;7.52;100.00;100655.63;5051727;28;20033;-71
2021/04/13 05:12:51;;;;;;;22.27;13.93;;;;;;;7.60;100.00;100628.25;5052834;28;20403;-70
2021/04/13 05:15:17;;;;;;;24.35;11.88;;;;;;;7.99;100.00;100671.81;5052932;28;20024;-70
2021/04/13 05:17:43;;;;;;;24.52;11.43;;;;;;;8.11;100.00;100665.78;5052828;28;20086;-70
2021/04/13 05:20:09;;;;;;;21.02;12.30;;;;;;;7.98;100.00;100629.22;5052825;28;20473;-70
2021/04/13 05:22:34;;;;;;;25.08;15.57;;;;;;;8.12;100.00;100662.25;5052992;28;20107;-70
2021/04/13 05:25:00;;;;;;;29.70;12.77;;;;;;;8.42;100.00;100654.19;5052807;28;20115;-70
2021/04/13 05:27:26;;;;;;;28.90;12.38;;;;;;;8.48;100.00;100652.94;5052739;28;20396;-70
2021/04/13 05:29:51;;;;;;;15.38;11.27;;;;;;;8.43;100.00;100616.66;5052980;28;20029;-70
2021/04/13 05:32:17;;;;;;;28.05;12.63;;;;;;;8.61;100.00;100612.00;5052602;28;20104;-70
2021/04/13 05:34:42;;;;;;;21.00;13.32;;;;;;;8.93;100.00;100640.31;5052080;28;20433;-70
2021/04/13 05:37:09;;;;;;;20.38;12.95;;;;;;;8.90;100.00;100617.81;5052848;28;20024;-70
2021/04/13 05:39:35;;;;;;;23.33;13.57;;;;;;;8.98;100.00;100619.91;5052526;28;20041;-69
2021/04/13 05:42:00;;;;;;;24.52;15.30;;;;;;;8.94;100.00;100621.06;5052680;28;20086;-69
2021/04/13 05:44:26;;;;;;;23.05;14.52;;;;;;;9.15;100.00;100627.41;5052374;28;20056;-69
2021/04/13 05:46:53;;;;;;;20.50;14.85;;;;;;;9.32;100.00;100643.72;5052367;28;20396;-70
2021/04/13 05:49:19;;;;;;;28.38;22.45;;;;;;;9.33;100.00;100646.19;5052580;28;20037;-70
2021/04/13 05:51:44;;;;;;;18.27;13.88;;;;;;;9.20;100.00;100625.31;5052494;28;20025;-69
2021/04/13 05:54:10;;;;;;;21.83;13.85;;;;;;;9.55;100.00;100652.50;5052331;28;20530;-68
2021/04/13 05:56:41;;;;;;;25.35;18.33;;;;;;;9.55;100.00;100621.97;5052275;28;20100;-70
2021/04/13 05:59:09;;;;;;;28.02;18.75;;;;;;;9.76;100.00;100616.13;5052356;28;20032;-70
2021/04/13 06:01:35;;;;;;;29.75;16.27;;;;;;;9.89;100.00;100619.53;5052262;28;20500;-70
2021/04/13 06:04:02;;;;;;;19.58;13.95;;;;;;;10.40;100.00;100648.06;5051995;28;20120;-70
2021/04/13 06:06:28;;;;;;;22.23;13.73;;;;;;;10.64;100.00;100646.19;5052241;28;20053;-70
2021/04/13 06:08:53;;;;;;;22.35;15.27;;;;;;;10.71;100.00;100637.88;5052364;28;20108;-70
2021/04/13 06:11:25;;;;;;;90.43;49.65;;;;;;;11.07;100.00;100647.31;5052120;28;20087;-70
2021/04/13 06:13:55;;;;;;;21.50;15.68;;;;;;;11.25;100.00;100634.53;5052125;28;20025;-70
2021/04/13 06:16:21;;;;;;;19.33;13.73;;;;;;;11.50;100.00;100647.38;5052071;28;20481;-69
2021/04/13 06:18:47;;;;;;;55.60;35.17;;;;;;;11.58;100.00;100616.13;5052101;28;20049;-70
2021/04/13 06:21:13;;;;;;;35.97;24.33;;;;;;;11.92;100.00;100644.09;5052368;28;20068;-69
2021/04/13 06:23:38;;;;;;;21.05;15.40;;;;;;;12.05;100.00;100642.97;5052328;28;20446;-70
2021/04/13 06:26:04;;;;;;;24.52;13.98;;;;;;;12.05;100.00;100621.13;5052257;28;20029;-69
2021/04/13 06:28:29;;;;;;;19.83;12.98;;;;;;;12.01;100.00;100611.78;5052202;28;20416;-69
2021/04/13 06:30:55;;;;;;;28.60;16.77;;;;;;;12.24;100.00;100628.28;5051915;28;20032;-70
2021/04/13 06:33:21;;;;;;;20.58;14.40;;;;;;;12.39;100.00;100626.19;5051961;28;20017;-69
2021/04/13 06:35:46;;;;;;;20.83;11.82;;;;;;;12.14;100.00;100611.63;5051883;28;20025;-69
2021/04/13 06:38:20;;;;;;;17.25;12.82;;;;;;;12.03;100.00;100584.44;5052275;28;20028;-69
2021/04/13 06:40:53;;;;;;;17.95;11.68;;;;;;;11.85;100.00;100620.13;5052036;28;20545;-69
2021/04/13 06:43:24;;;;;;;20.80;13.02;;;;;;;12.10;100.00;100618.09;5051876;28;20025;-70
2021/04/13 06:46:15;;;;;;;20.67;11.38;;;;;;;12.47;100.00;100607.97;5054086;28;20131;-69
2021/04/13 06:49:14;;;;;;;18.88;12.00;;;;;;;12.75;100.00;100596.75;5056058;28;20028;-69
2021/04/13 06:52:08;;;;;;;16.58;12.10;;;;;;;12.86;100.00;100545.03;5055617;28;20052;-69
2021/04/13 06:54:49;;;;;;;16.30;10.93;;;;;;;13.09;100.00;100561.44;5055993;28;20025;-69
2021/04/13 06:57:32;;;;;;;15.07;11.38;;;;;;;12.85;100.00;100581.03;5055762;28;20087;-69
2021/04/13 06:59:58;;;;;;;14.10;10.82;;;;;;;12.63;100.00;100623.28;5055287;28;20037;-69
2021/04/13 07:02:31;;;;;;;23.77;15.18;;;;;;;12.61;100.00;100591.03;5055674;28;20044;-69
2021/04/13 07:04:59;;;;;;;20.90;11.38;;;;;;;13.41;100.00;100625.28;5055795;28;20035;-69
2021/04/13 07:07:40;;;;;;;18.65;12.27;;;;;;;13.67;100.00;100608.97;5055528;28;20103;-69
2021/04/13 07:10:25;;;;;;;20.52;12.25;;;;;;;13.87;100.00;100615.91;5055287;28;20036;-69
2021/04/13 07:13:07;;;;;;;15.80;12.65;;;;;;;14.07;100.00;100611.47;5055468;28;20091;-69
2021/04/13 07:15:38;;;;;;;17.33;12.20;;;;;;;14.12;100.00;100619.78;5055927;28;20029;-68
2021/04/13 07:18:10;;;;;;;17.73;11.77;;;;;;;13.79;100.00;100623.66;5055304;28;20025;-69
2021/04/13 07:20:37;;;;;;;14.20;11.00;;;;;;;13.91;100.00;100596.22;5055136;28;20102;-69
2021/04/13 07:23:26;;;;;;;16.83;11.27;;;;;;;13.81;100.00;100610.38;5055262;28;20112;-65
2021/04/13 07:25:56;;;;;;;13.77;10.38;;;;;;;13.79;100.00;100618.41;5055149;28;20027;-71
2021/04/13 07:28:37;;;;;;;16.52;11.02;;;;;;;14.39;100.00;100620.88;5055273;28;20036;-69
2021/04/13 07:31:16;;;;;;;20.08;12.30;;;;;;;14.50;100.00;100614.59;5054673;28;20033;-69
2021/04/13 07:33:44;;;;;;;15.48;10.70;;;;;;;14.39;100.00;100611.16;5054854;28;20116;-69
2021/04/13 07:36:24;;;;;;;14.75;12.07;;;;;;;14.70;100.00;100608.31;5054843;28;20028;-69
2021/04/13 07:38:51;;;;;;;18.98;11.43;;;;;;;14.78;100.00;100602.31;5054998;28;20087;-68
2021/04/13 07:41:41;;;;;;;15.30;11.32;;;;;;;14.62;100.00;100579.22;5054860;28;20079;-68
2021/04/13 07:44:25;;;;;;;16.58;11.10;;;;;;;14.51;100.00;100567.03;5046811;28;20037;-68
2021/04/13 07:47:20;;;;;;;22.73;13.75;;;;;;;14.59;100.00;100561.03;5054684;28;20086;-68
2021/04/13 07:49:52;;;;;;;20.00;12.80;;;;;;;14.84;100.00;100599.94;5054785;28;20108;-68
2021/04/13 07:52:41;;;;;;;16.27;12.40;;;;;;;14.74;100.00;100583.31;5054449;28;20056;-68
2021/04/13 07:55:23;;;;;;;17.40;12.45;;;;;;;14.84;100.00;100594.66;5054702;28;20400;-69
2021/04/13 07:58:15;;;;;;;16.90;11.73;;;;;;;15.04;100.00;100594.56;5052696;28;20021;-68
2021/04/13 08:00:50;;;;;;;17.67;12.27;;;;;;;14.81;100.00;100573.84;5054889;28;20033;-68
2021/04/13 08:03:32;;;;;;;16.98;12.90;;;;;;;15.06;100.00;100593.47;5054772;28;20044;-67
2021/04/13 08:06:25;;;;;;;16.05;12.63;;;;;;;14.62;100.00;100593.22;5056642;28;20053;-69
2021/04/13 08:09:11;;;;;;;16.70;12.80;;;;;;;14.49;100.00;100584.75;5053966;28;20033;-69
2021/04/13 08:11:36;;;;;;;15.05;12.57;;;;;;;14.59;100.00;100558.38;5054257;28;20029;-69
2021/04/13 08:14:20;;;;;;;17.75;12.43;;;;;;;14.59;100.00;100584.75;5054292;28;20025;-69
2021/04/13 08:16:45;;;;;;;18.20;12.75;;;;;;;14.10;100.00;100542.66;5052857;28;20095;-69
2021/04/13 08:19:31;;;;;;;17.95;13.48;;;;;;;14.39;100.00;100563.69;5053914;28;20025;-69
2021/04/13 08:22:12;;;;;;;20.70;14.18;;;;;;;14.69;100.00;100564.47;5046630;28;20570;-70
2021/04/13 08:24:45;;;;;;;19.30;14.15;;;;;;;15.07;100.00;100544.13;5047397;28;20091;-70
2021/04/13 08:27:43;;;;;;;19.52;13.75;;;;;;;15.54;100.00;100559.81;5048127;28;20029;-69
2021/04/13 08:30:21;;;;;;;15.63;12.68;;;;;;;15.44;100.00;100556.41;5063829;28;20040;-70
2021/04/13 08:33:01;;;;;;;17.42;11.63;;;;;;;15.27;100.00;100547.50;5041279;28;20116;-69
2021/04/13 08:35:30;;;;;;;21.30;11.10;;;;;;;14.79;100.00;100552.06;5048415;28;20090;-70
2021/04/13 08:38:10;;;;;;;14.43;10.75;;;;;;;14.93;100.00;100555.19;5048010;28;20084;-70
2021/04/13 08:40:48;;;;;;;15.98;12.45;;;;;;;15.10;100.00;100552.59;5048286;28;20037;-69
2021/04/13 08:43:32;;;;;;;17.05;12.43;;;;;;;15.76;100.00;100540.03;5044526;28;20036;-70
2021/04/13 08:46:48;;;;;;;16.73;11.98;;;;;;;16.21;100.00;100533.78;5047651;28;20044;-70
2021/04/13 08:49:38;;;;;;;16.52;12.73;;;;;;;15.42;100.00;100534.59;5006222;28;20544;-69
2021/04/13 08:52:16;;;;;;;16.80;12.50;;;;;;;15.70;100.00;100528.28;5005642;28;20042;-71
2021/04/13 08:54:47;;;;;;;15.20;11.77;;;;;;;15.96;100.00;100511.63;5033941;28;20086;-70
2021/04/13 08:57:28;;;;;;;20.35;12.88;;;;;;;15.68;100.00;100524.94;5046630;28;20037;-69
2021/04/13 08:59:58;;;;;;;20.00;11.60;;;;;;;15.57;100.00;100496.94;5044274;28;20059;-70
2021/04/13 09:02:24;;;;;;;16.80;11.80;;;;;;;15.75;100.00;100518.06;5047867;28;20044;-69
2021/04/13 09:05:10;;;;;;;13.88;11.23;;;;;;;15.64;100.00;100505.09;5048115;28;20102;-70
2021/04/13 09:08:03;;;;;;;18.85;12.27;;;;;;;16.18;100.00;100508.47;5047544;28;20025;-70
2021/04/13 09:10:49;;;;;;;15.38;11.18;;;;;;;16.29;100.00;100500.25;5044871;28;20408;-69
2021/04/13 09:13:23;;;;;;;16.05;12.00;;;;;;;16.15;100.00;100503.50;5046869;28;20040;-70
2021/04/13 09:16:01;;;;;;;17.05;10.70;;;;;;;15.85;100.00;100493.38;5047766;28;20033;-70
2021/04/13 09:18:33;;;;;;;19.50;10.80;;;;;;;15.82;100.00;100490.06;5047724;28;20512;-69
2021/04/13 09:21:27;;;;;;;13.63;10.38;;;;;;;16.33;100.00;100484.09;5047138;28;20111;-70
2021/04/13 09:23:56;;;;;;;15.40;10.32;;;;;;;16.54;100.00;100484.53;5062506;28;20094;-69
2021/04/13 09:26:31;;;;;;;13.70;9.57;;;;;;;16.54;100.00;100473.97;5047286;28;20499;-69
2021/04/13 09:28:59;;;;;;;13.35;9.98;;;;;;;16.37;100.00;100469.56;5039164;28;20095;-70
2021/04/13 09:31:34;;;;;;;13.85;10.73;;;;;;;16.24;100.00;100477.94;5047032;28;20029;-69
2021/04/13 09:34:13;;;;;;;16.77;10.88;;;;;;;15.89;100.00;100450.63;5047108;28;20033;-69
2021/04/13 09:37:05;;;;;;;25.90;11.00;;;;;;;16.27;100.00;100467.06;5047070;28;20517;-71
2021/04/13 09:40:11;;;;;;;16.98;10.90;;;;;;;16.44;100.00;100473.25;5047228;28;20029;-69
2021/04/13 09:42:53;;;;;;;12.90;9.40;;;;;;;16.43;100.00;100466.28;5041884;28;20033;-69
2021/04/13 09:45:42;;;;;;;16.13;9.55;;;;;;;16.33;100.00;100461.09;5047094;28;20055;-70
2021/04/13 09:48:29;;;;;;;14.40;8.40;;;;;;;16.39;100.00;100463.13;5046927;28;20123;-69
2021/04/13 09:51:20;;;;;;;13.35;8.27;;;;;;;16.73;100.00;100447.22;5046497;28;20173;-70
2021/04/13 09:54:00;;;;;;;11.68;8.02;;;;;;;17.18;100.00;100446.03;5047001;28;20036;-69
2021/04/13 09:56:41;;;;;;;11.60;8.15;;;;;;;17.38;100.00;100445.69;5047038;28;20025;-70
2021/04/13 09:59:28;;;;;;;9.75;7.57;;;;;;;17.39;100.00;100442.06;5046976;28;20463;-69
2021/04/13 10:02:05;;;;;;;10.30;7.10;;;;;;;17.58;100.00;100451.47;5047038;28;20044;-70
2021/04/13 10:04:53;;;;;;;8.48;6.60;;;;;;;17.52;100.00;100423.84;5046900;28;20460;-70
2021/04/13 10:07:24;;;;;;;9.43;6.90;;;;;;;17.72;100.00;100442.88;5042289;28;20045;-70
2021/04/13 10:09:50;;;;;;;10.63;7.55;;;;;;;17.52;100.00;100413.25;5046958;28;20044;-70
2021/04/13 10:12:50;;;;;;;11.85;7.75;;;;;;;17.65;100.00;100448.00;5046381;28;20068;-70
2021/04/13 10:15:40;;;;;;;9.38;6.80;;;;;;;17.67;100.00;100434.59;5046542;28;20075;-70
2021/04/13 10:18:27;;;;;;;11.20;7.75;;;;;;;17.80;100.00;100428.81;5046616;28;20183;-69
2021/04/13 10:21:00;;;;;;;10.57;7.53;;;;;;;17.50;100.00;100431.13;5045677;28;20054;-69
2021/04/13 10:23:59;;;;;;;8.75;6.65;;;;;;;17.14;100.00;100426.13;5047213;28;20040;-69
2021/04/13 10:27:00;;;;;;;11.63;7.38;;;;;;;17.22;100.00;100420.84;5049534;28;20067;-70
2021/04/13 10:29:28;;;;;;;7.97;6.32;;;;;;;17.34;100.00;100421.34;5046087;28;20595;-70
2021/04/13 10:32:33;;;;;;;14.10;6.78;;;;;;;17.26;100.00;100417.88;5048689;28;20040;-71
2021/04/13 10:35:10;;;;;;;8.75;6.40;;;;;;;17.20;100.00;100414.06;5035404;28;20047;-69
2021/04/13 10:37:47;;;;;;;12.13;6.32;;;;;;;17.15;100.00;100425.16;5035863;28;20035;-69
2021/04/13 10:40:28;;;;;;;10.32;6.15;;;;;;;16.85;100.00;100423.13;5035995;28;20060;-69
2021/04/13 10:43:22;;;;;;;10.15;7.45;;;;;;;16.96;100.00;100406.94;5035804;28;20038;-69
2021/04/13 10:46:05;;;;;;;11.18;5.78;;;;;;;17.12;100.00;100408.78;5035863;28;20021;-69
2021/04/13 10:49:09;;;;;;;11.50;6.85;;;;;;;17.45;100.00;100405.13;5035961;28;20030;-69
2021/04/13 10:51:50;;;;;;;12.05;6.45;;;;;;;17.27;100.00;100401.00;5035346;28;20124;-69
2021/04/13 10:54:28;;;;;;;14.27;7.13;;;;;;;17.20;100.00;100400.81;5035721;28;20104;-69
2021/04/13 10:57:12;;;;;;;11.20;6.70;;;;;;;17.07;100.00;100396.00;5035609;28;20029;-69
2021/04/13 11:00:25;;;;;;;8.27;6.13;;;;;;;16.90;100.00;100394.34;5035577;28;20037;-69
2021/04/13 11:03:21;;;;;;;10.50;7.07;;;;;;;16.72;100.00;100387.34;5033306;28;20030;-69
2021/04/13 11:06:08;;;;;;;9.40;6.85;;;;;;;16.41;100.00;100363.28;5035559;28;20053;-69
2021/04/13 11:09:01;;;;;;;8.82;6.28;;;;;;;16.59;100.00;100381.69;5035851;28;20120;-69
2021/04/13 11:11:59;;;;;;;9.52;6.32;;;;;;;16.55;100.00;100390.94;5035278;28;20025;-68
2021/04/13 11:14:48;;;;;;;18.27;6.95;;;;;;;16.52;100.00;100389.44;5035723;28;20036;-69
2021/04/13 11:17:44;;;;;;;12.02;6.22;;;;;;;16.43;100.00;100387.75;5035310;28;20536;-68
2021/04/13 11:20:23;;;;;;;9.90;7.10;;;;;;;16.67;100.00;100389.66;5035295;28;20028;-69
2021/04/13 11:23:16;;;;;;;17.20;12.02;;;;;;;16.79;100.00;100392.03;5035062;28;20482;-69
2021/04/13 11:26:12;;;;;;;13.35;9.15;;;;;;;16.87;100.00;100389.38;5035513;28;20083;-69
2021/04/13 11:29:05;;;;;;;11.20;6.93;;;;;;;16.73;100.00;100388.16;5035046;28;20416;-69
2021/04/13 11:32:02;;;;;;;15.25;9.75;;;;;;;16.91;100.00;100374.84;5034113;28;20025;-69
2021/04/13 11:34:59;;;;;;;10.93;6.30;;;;;;;16.67;100.00;100381.72;5034868;28;20091;-69
2021/04/13 11:37:52;;;;;;;11.48;6.85;;;;;;;16.51;100.00;100386.97;5034702;28;20048;-69
2021/04/13 11:40:26;;;;;;;12.52;7.60;;;;;;;16.71;100.00;100377.75;5035034;28;20033;-69
2021/04/13 11:42:57;;;;;;;9.77;6.82;;;;;;;16.56;100.00;100344.16;5034722;28;20516;-69
2021/04/13 11:45:31;;;;;;;15.82;8.90;;;;;;;16.83;100.00;100372.16;5034825;28;20032;-69
2021/04/13 11:48:27;;;;;;;12.55;7.20;;;;;;;16.93;100.00;100360.44;5035113;28;20033;-69
2021/04/13 11:51:28;;;;;;;9.98;7.15;;;;;;;16.83;100.00;100340.41;5034591;28;20037;-69
2021/04/13 11:53:54;;;;;;;12.88;8.30;;;;;;;17.19;100.00;100360.28;5033274;28;20033;-69